地図

経路データ

SID SEASON NUMBER BASIN SUBBASIN NAME ISO_TIME NATURE LAT LON WMO_WIND WMO_PRES WMO_AGENCY TRACK_TYPE DIST2LAND LANDFALL IFLAG USA_AGENCY USA_ATCF_ID USA_LAT USA_LON USA_RECORD USA_STATUS USA_WIND USA_PRES USA_SSHS USA_R34_NE USA_R34_SE USA_R34_SW USA_R34_NW USA_R50_NE USA_R50_SE USA_R50_SW USA_R50_NW USA_R64_NE USA_R64_SE USA_R64_SW USA_R64_NW USA_POCI USA_ROCI USA_RMW USA_EYE TOKYO_LAT TOKYO_LON TOKYO_GRADE TOKYO_WIND TOKYO_PRES TOKYO_R50_DIR TOKYO_R50_LONG TOKYO_R50_SHORT TOKYO_R30_DIR TOKYO_R30_LONG TOKYO_R30_SHORT TOKYO_LAND CMA_LAT CMA_LON CMA_CAT CMA_WIND CMA_PRES HKO_LAT HKO_LON HKO_CAT HKO_WIND HKO_PRES NEWDELHI_LAT NEWDELHI_LON NEWDELHI_GRADE NEWDELHI_WIND NEWDELHI_PRES NEWDELHI_CI NEWDELHI_DP NEWDELHI_POCI REUNION_LAT REUNION_LON REUNION_TYPE REUNION_WIND REUNION_PRES REUNION_TNUM REUNION_CI REUNION_RMW REUNION_R34_NE REUNION_R34_SE REUNION_R34_SW REUNION_R34_NW REUNION_R50_NE REUNION_R50_SE REUNION_R50_SW REUNION_R50_NW REUNION_R64_NE REUNION_R64_SE REUNION_R64_SW REUNION_R64_NW BOM_LAT BOM_LON BOM_TYPE BOM_WIND BOM_PRES BOM_TNUM BOM_CI BOM_RMW BOM_R34_NE BOM_R34_SE BOM_R34_SW BOM_R34_NW BOM_R50_NE BOM_R50_SE BOM_R50_SW BOM_R50_NW BOM_R64_NE BOM_R64_SE BOM_R64_SW BOM_R64_NW BOM_ROCI BOM_POCI BOM_EYE BOM_POS_METHOD BOM_PRES_METHOD NADI_LAT NADI_LON NADI_CAT NADI_WIND NADI_PRES WELLINGTON_LAT WELLINGTON_LON WELLINGTON_WIND WELLINGTON_PRES DS824_LAT DS824_LON DS824_STAGE DS824_WIND DS824_PRES TD9636_LAT TD9636_LON TD9636_STAGE TD9636_WIND TD9636_PRES TD9635_LAT TD9635_LON TD9635_WIND TD9635_PRES TD9635_ROCI NEUMANN_LAT NEUMANN_LON NEUMANN_CLASS NEUMANN_WIND NEUMANN_PRES MLC_LAT MLC_LON MLC_CLASS MLC_WIND MLC_PRES USA_GUST BOM_GUST BOM_GUST_PER REUNION_GUST REUNION_GUST_PER USA_SEAHGT USA_SEARAD_NE USA_SEARAD_SE USA_SEARAD_SW USA_SEARAD_NW STORM_SPEED STORM_DIR
1981291S05081 1982 94 SI MM ALEX 1981-10-18 00:00:00 TS -5.00000 81.0000 main 1222 1222 ____________O_ -1 -5.00000 81.0000 TC 10 1008 5 135
1981291S05081 1982 94 SI MM ALEX 1981-10-18 03:00:00 TS -5.16001 81.1625 main 1245 1245 ____________P_ -1 -5.16001 81.1625 TC 12 1007 4 135
1981291S05081 1982 94 SI MM ALEX 1981-10-18 06:00:00 TS -5.30000 81.3000 main 1257 1257 ____________O_ -1 -5.30000 81.3000 TC 15 1007 3 136
1981291S05081 1982 94 SI MM ALEX 1981-10-18 09:00:00 TS -5.40749 81.4000 main 1269 1269 ____________P_ -1 -5.40749 81.4000 TC 17 1006 3 135
1981291S05081 1982 94 SI MM ALEX 1981-10-18 12:00:00 TS -5.50000 81.5000 main 1281 1281 ____________O_ -1 -5.50000 81.5000 TC 20 1005 3 129
1981291S05081 1982 94 SI MM ALEX 1981-10-18 15:00:00 TS -5.60000 81.6350 main 1293 1293 ____________P_ -1 -5.60000 81.6350 TC 22 1004 4 124
1981291S05081 1982 94 SI MM ALEX 1981-10-18 18:00:00 TS -5.70000 81.8000 main 1306 1306 ____________O_ -1 -5.70000 81.8000 TC 25 1003 4 119
1981291S05081 1982 94 SI MM ALEX 1981-10-18 21:00:00 TS -5.80001 82.0000 main 1320 1320 ____________P_ -1 -5.80001 82.0000 TC 25 1002 4 117
1981291S05081 1982 94 SI MM ALEX 1981-10-19 00:00:00 TS -5.90000 82.2000 main 1334 1334 ____________O_ -1 -5.90000 82.2000 TC 25 1001 4 119
1981291S05081 1982 94 SI MM ALEX 1981-10-19 03:00:00 TS -5.99999 82.3650 main 1348 1348 ____________P_ -1 -5.99999 82.3650 TC 27 1000 4 124
1981291S05081 1982 94 SI MM ALEX 1981-10-19 06:00:00 TS -6.10000 82.5000 main 1361 1361 ____________O_ -1 -6.10000 82.5000 TC 30 999 3 131
1981291S05081 1982 94 SI MM ALEX 1981-10-19 09:00:00 TS -6.20749 82.6000 main 1374 1374 ____________P_ -1 -6.20749 82.6000 TC 32 998 3 135
1981291S05081 1982 94 SI MM ALEX 1981-10-19 12:00:00 TS -6.30000 82.7000 main 1386 1386 ____________O_ -1 -6.30000 82.7000 TC 35 997 3 121
1981291S05081 1982 94 SI MM ALEX 1981-10-19 15:00:00 TS -6.35000 82.8425 main 1388 1399 ____________P_ -1 -6.35000 82.8425 TC 37 996 3 109
1981291S05081 1982 94 SI MM ALEX 1981-10-19 18:00:00 TS -6.40000 83.0000 main 1403 1403 ____________O_ -1 -6.40000 83.0000 TC 40 995 3 116
1981291S05081 1982 94 SI MM ALEX 1981-10-19 21:00:00 TS -6.50000 83.1575 main 1419 1419 ____________P_ -1 -6.50000 83.1575 TC 40 994 4 124
1981291S05081 1982 94 SI MM ALEX 1981-10-20 00:00:00 TS -6.60000 83.3000 main 1432 1432 ____________O_ -1 -6.60000 83.3000 TC 40 993 4 116
1981291S05081 1982 94 SI MM ALEX 1981-10-20 03:00:00 TS -6.65747 83.4750 main 1448 1448 ____________P_ -1 -6.65747 83.4750 TC 45 990 2 117
1981291S05081 1982 94 SI MM ALEX 1981-10-20 06:00:00 TS -6.70000 83.5000 main 1448 1438 ____________O_ -1 -6.70000 83.5000 TC 50 988 4 258
1981291S05081 1982 94 SI MM ALEX 1981-10-20 09:00:00 TS -6.74258 83.0751 main 1438 1436 ____________P_ -1 -6.74258 83.0751 TC 52 986 7 262
1981291S05081 1982 94 SI MM ALEX 1981-10-20 12:00:00 TS -6.80000 82.8000 main 1443 1443 ____________O_ -1 -6.80000 82.8000 TC 55 984 3 119
1981291S05081 1982 94 SI MM ALEX 1981-10-20 15:00:00 TS -6.87033 83.3100 main 1465 1465 ____________P_ -1 -6.87033 83.3100 TC 57 982 12 100
1981291S05081 1982 94 SI MM ALEX 1981-10-20 18:00:00 TS -7.00000 84.0000 main 1494 1494 ____________O_ -1 -7.00000 84.0000 TC 60 981 11 110
1981291S05081 1982 94 SI MM ALEX 1981-10-20 21:00:00 TS -7.24238 84.3175 main 1524 1524 ____________P_ -1 -7.24238 84.3175 TC 62 979 7 135
1981291S05081 1982 94 SI MM ALEX 1981-10-21 00:00:00 TS -7.50000 84.5000 main 1562 1562 ____________O_ -1 -7.50000 84.5000 TC 65 977 5 138
1981291S05081 1982 94 SI MM ALEX 1981-10-21 03:00:00 TS -7.64249 84.6800 main 1579 1579 ____________P_ -1 -7.64249 84.6800 TC 67 975 4 143
1981291S05081 1982 94 SI MM ALEX 1981-10-21 06:00:00 TS -7.84000 84.7600 main 1604 1604 O___________O_ jtwc_sh SH021982 -8.00000 84.6000 40 0 -7.80000 84.8000 TC 70 973 5 166
1981291S05081 1982 94 SI MM ALEX 1981-10-21 09:00:00 TS -8.11833 84.8000 main 1636 1636 P___________P_ SH021982 -8.15500 84.6550 40 0 -8.09999 84.8725 TC 72 970 5 183
1981291S05081 1982 94 SI MM ALEX 1981-10-21 10:00:00 TS -8.16805 84.7571 main 1647 1644 P_________O_P_ SH021982 -8.20494 84.6716 40 0 -7.90000 84.5000 2 40 -8.20740 84.8854 TC 73 969 4 193
1981291S05081 1982 94 SI MM ALEX 1981-10-21 12:00:00 TS -8.30714 84.7576 main 1658 1658 O_________P_O_ jtwc_sh SH021982 -8.30000 84.7000 40 0 -8.13570 84.5881 2 40 -8.40000 84.9000 TC 75 968 4 176
1981291S05081 1982 94 SI MM ALEX 1981-10-21 15:00:00 TS -8.47109 84.7796 main 1679 1679 P_________P_P_ SH021982 -8.42249 84.7225 40 0 -8.43068 84.6851 2 40 -8.55000 84.9075 TC 77 966 3 175
1981291S05081 1982 94 SI MM ALEX 1981-10-21 16:00:00 TS -8.51572 84.7756 main 1679 1679 P_________O_P_ SH021982 -8.45456 84.7212 40 0 -8.50000 84.7000 2 40 -8.59259 84.9054 TC 78 966 3 190
1981291S05081 1982 94 SI MM ALEX 1981-10-21 18:00:00 TS -8.59446 84.7655 main 1690 1687 O_________P_O_ jtwc_sh SH021982 -8.50000 84.7000 40 0 -8.58337 84.6966 2 42 -8.70000 84.9000 TC 80 965 2 201
1981291S05081 1982 94 SI MM ALEX 1981-10-21 21:00:00 TS -8.70021 84.7116 main 1698 1698 P_________P_P_ SH021982 -8.50001 84.5925 45 0 -8.60813 84.6348 2 46 -8.99250 84.9075 TC 80 964 2 209
1981291S05081 1982 94 SI MM ALEX 1981-10-22 00:00:00 TS -8.79382 84.6507 main 1708 1705 O_________P_O_ jtwc_sh SH021982 -8.50000 84.5000 50 0 -8.58147 84.5520 2 50 -9.30000 84.9000 TC 80 964 2 205
1981291S05081 1982 94 SI MM ALEX 1981-10-22 03:00:00 TS -8.88615 84.6186 main 1716 1716 P_________P_P_ SH021982 -8.56999 84.5125 52 0 -8.58095 84.5009 2 53 -9.50750 84.8425 TC 80 964 2 196
1981291S05081 1982 94 SI MM ALEX 1981-10-22 04:00:00 TS -8.92543 84.6192 main 1716 1716 P_________O_P_ SH021982 -8.60666 84.5346 53 0 -8.60000 84.5000 2 55 -9.56963 84.8230 TC 80 964 3 166
1981291S05081 1982 94 SI MM ALEX 1981-10-22 06:00:00 TS -9.02969 84.6497 main 1727 1727 O_________P_O_ jtwc_sh SH021982 -8.70000 84.6000 55 0 -8.68907 84.5492 2 55 -9.70000 84.8000 TC 80 964 4 158
1981291S05081 1982 94 SI MM ALEX 1981-10-22 09:00:00 TS -9.22796 84.7477 main 1752 1752 P_________P_P_ SH021982 -8.85501 84.7350 55 0 -8.87886 84.6732 2 55 -9.95000 84.8350 TC 80 964 5 153
1981291S05081 1982 94 SI MM ALEX 1981-10-22 12:00:00 TS -9.47961 84.8803 main 1779 1774 O_________P_O_ jtwc_sh SH021982 -9.10000 84.9000 55 0 -9.13883 84.8410 2 55 -10.2000 84.9000 TC 80 964 6 156
1981291S05081 1982 94 SI MM ALEX 1981-10-22 15:00:00 TS -9.76818 84.9962 main 1785 1785 P_________P_P_ SH021982 -9.44748 85.0351 57 0 -9.47208 85.0335 2 55 -10.3850 84.9201 TC 80 964 6 158
1981291S05081 1982 94 SI MM ALEX 1981-10-22 16:00:00 TS -9.87875 85.0398 main 1791 1781 P_________O_P_ SH021982 -9.58788 85.0843 58 0 -9.60000 85.1000 2 55 -10.4484 84.9352 TC 80 964 8 156
1981291S05081 1982 94 SI MM ALEX 1981-10-22 18:00:00 TS -10.1307 85.1544 main 1783 1783 O_________P_O_ jtwc_sh SH021982 -9.90000 85.2000 60 0 -9.89206 85.2633 2 59 -10.6000 85.0000 TC 80 964 10 153
1981291S05081 1982 94 SI MM ALEX 1981-10-22 21:00:00 TS -10.5954 85.4047 main 1794 1791 P_________P_P_ SH021982 -10.4501 85.4573 67 1 -10.3935 85.5220 2 65 -10.9426 85.2348 TC 80 964 11 153
1981291S05081 1982 94 SI MM ALEX 1981-10-23 00:00:00 TS -11.0755 85.6492 main 1807 1798 O_________P_O_ jtwc_sh SH021982 -11.0000 85.7000 75 1 -10.9265 85.7477 2 71 -11.3000 85.5000 TC 80 964 10 155
1981291S05081 1982 94 SI MM ALEX 1981-10-23 03:00:00 TS -11.4712 85.8180 main 1816 1816 P_________P_P_ SH021982 -11.4299 85.8749 77 1 -11.4412 85.8842 2 77 -11.5425 85.6950 TC 80 964 8 159
1981291S05081 1982 94 SI MM ALEX 1981-10-23 04:00:00 TS -11.5927 85.8491 main 1822 1813 P_________O_P_ SH021982 -11.5575 85.9049 78 1 -11.6000 85.9000 4 80 -11.6205 85.7425 TC 80 964 7 174
1981291S05081 1982 94 SI MM ALEX 1981-10-23 06:00:00 TS -11.8234 85.8502 main 1827 1827 O_________P_O_ jtwc_sh SH021982 -11.8000 85.9000 80 1 -11.8702 85.8507 4 80 -11.8000 85.8000 TC 80 964 7 191
1981291S05081 1982 94 SI MM ALEX 1981-10-23 09:00:00 TS -12.1985 85.7193 main 1871 1871 P_________P_P_ SH021982 -12.1576 85.6952 82 1 -12.2379 85.6752 4 82 -12.2000 85.7876 TC 80 964 8 204
1981291S05081 1982 94 SI MM ALEX 1981-10-23 12:00:00 TS -12.5580 85.5102 main 1916 1916 O_________P_O_ jtwc_sh SH021982 -12.5000 85.4000 85 2 -12.5740 85.4306 4 83 -12.6000 85.7000 TC 80 964 8 210
1981291S05081 1982 94 SI MM ALEX 1981-10-23 15:00:00 TS -12.8697 85.3230 main 1954 1954 P_________P_P_ SH021982 -12.8500 85.1850 85 2 -12.8941 85.1765 4 84 -12.8650 85.6075 TC 80 964 7 210
1981291S05081 1982 94 SI MM ALEX 1981-10-23 16:00:00 TS -12.9695 85.2640 main 1961 1961 P_________O_P_ SH021982 -12.9667 85.1200 85 2 -13.0000 85.1000 4 85 -12.9417 85.5721 TC 80 964 7 208
1981291S05081 1982 94 SI MM ALEX 1981-10-23 18:00:00 TS -13.1776 85.1604 main 1984 1984 O_________P_O_ jtwc_sh SH021982 -13.2000 85.0000 85 2 -13.2328 84.9812 4 85 -13.1000 85.5000 TC 80 964 7 204
1981291S05081 1982 94 SI MM ALEX 1981-10-23 21:00:00 TS -13.5037 85.0213 main 2022 2022 P_________P_P_ SH021982 -13.5575 84.8275 85 2 -13.5760 84.8215 4 85 -13.3775 85.4149 TC 80 964 7 201
1981291S05081 1982 94 SI MM ALEX 1981-10-24 00:00:00 TS -13.8346 84.8984 main 2052 2052 O_________P_O_ jtwc_sh SH021982 -13.9000 84.7000 85 2 -13.9037 84.6952 4 85 -13.7000 85.3000 TC 80 964 7 199
1981291S05081 1982 94 SI MM ALEX 1981-10-24 03:00:00 TS -14.1863 84.7757 main 2089 2089 P_________P_P_ SH021982 -14.2225 84.6125 85 2 -14.2063 84.6146 4 85 -14.1300 85.1002 TC 75 968 7 199
1981291S05081 1982 94 SI MM ALEX 1981-10-24 04:00:00 TS -14.2970 84.7424 main 2104 2104 P_________O_P_ SH021982 -14.3212 84.5988 85 2 -14.3000 84.6000 4 85 -14.2699 85.0286 TC 73 969 6 194
1981291S05081 1982 94 SI MM ALEX 1981-10-24 06:00:00 TS -14.4892 84.7107 main 2119 2119 O_________P_O_ jtwc_sh SH021982 -14.5000 84.6000 85 2 -14.4675 84.6322 4 85 -14.5000 84.9000 TC 70 973 5 0
1981291S05081 1982 94 SI MM ALEX 1981-10-24 09:00:00 TS -14.6770 84.7368 main 2134 2126 P_________P_P_ SH021982 -14.7075 84.6999 85 2 -14.6934 84.7257 4 85 -14.6300 84.7849 TC 72 971 4 172
1981291S05081 1982 94 SI MM ALEX 1981-10-24 12:00:00 TS -14.8352 84.7709 main 2133 2133 O_________P_O_ jtwc_sh SH021982 -14.9000 84.8000 85 2 -14.9056 84.8128 4 85 -14.7000 84.7000 TC 75 970 4 177
1981291S05081 1982 94 SI MM ALEX 1981-10-24 15:00:00 TS -15.0476 84.7523 main 2148 2148 P_________P_P_ SH021982 -15.1348 84.8323 85 2 -15.1231 84.8247 4 85 -14.8850 84.6000 TC 75 970 4 189
1981291S05081 1982 94 SI MM ALEX 1981-10-24 16:00:00 TS -15.1252 84.7264 main 2164 2164 P_________O_P_ SH021982 -15.2198 84.8126 85 2 -15.2000 84.8000 4 85 -14.9558 84.5667 TC 75 970 6 209
1981291S05081 1982 94 SI MM ALEX 1981-10-24 18:00:00 TS -15.2978 84.6093 main 2187 2187 O_________P_O_ jtwc_sh SH021982 -15.4000 84.7000 85 2 -15.3934 84.6279 4 85 -15.1000 84.5000 TC 75 970 7 222
1981291S05081 1982 94 SI MM ALEX 1981-10-24 21:00:00 TS -15.5706 84.3130 main 2233 2233 P_________P_P_ SH021982 -15.7079 84.2654 85 2 -15.6963 84.2736 4 85 -15.3075 84.4000 TC 75 969 8 228
1981291S05081 1982 94 SI MM ALEX 1981-10-25 00:00:00 TS -15.8289 83.9966 main 2272 2272 O_________P_O_ jtwc_sh SH021982 -16.0000 83.8000 85 2 -15.9866 83.8898 4 85 -15.5000 84.3000 TC 75 969 7 228
1981291S05081 1982 94 SI MM ALEX 1981-10-25 03:00:00 TS -16.0351 83.7803 main 2303 2303 P_________P_P_ SH021982 -16.2373 83.5599 85 2 -16.2329 83.5735 4 85 -15.6350 84.2074 TC 77 967 6 224
1981291S05081 1982 94 SI MM ALEX 1981-10-25 04:00:00 TS -16.0943 83.7315 main 2319 2319 P_________O_P_ SH021982 -16.3011 83.5199 85 2 -16.3000 83.5000 4 85 -15.6817 84.1745 TC 78 967 4 208
1981291S05081 1982 94 SI MM ALEX 1981-10-25 06:00:00 TS -16.1950 83.6922 main 2326 2326 O_________P_O_ jtwc_sh SH021982 -16.4000 83.5000 85 2 -16.3850 83.4765 4 82 -15.8000 84.1000 TC 80 966 3 181
1981291S05081 1982 94 SI MM ALEX 1981-10-25 09:00:00 TS -16.3349 83.7094 main 2334 2334 P_________P_P_ SH021982 -16.4651 83.6349 80 1 -16.4620 83.5431 4 78 -16.0775 83.9501 TC 80 965 3 167
1981291S05081 1982 94 SI MM ALEX 1981-10-25 12:00:00 TS -16.4706 83.7559 main 2341 2341 O_________P_O_ jtwc_sh SH021982 -16.5000 83.8000 75 1 -16.5117 83.6678 4 74 -16.4000 83.8000 TC 80 964 3 171
1981291S05081 1982 94 SI MM ALEX 1981-10-25 15:00:00 TS -16.6163 83.7578 main 2349 2349 P_________P_P_ SH021982 -16.5850 83.7875 72 1 -16.5714 83.7786 4 71 -16.6925 83.7073 TC 80 964 3 187
1981291S05081 1982 94 SI MM ALEX 1981-10-25 16:00:00 TS -16.6707 83.7466 main 2364 2364 P_________O_P_ SH021982 -16.6200 83.7630 71 1 -16.6000 83.8000 4 70 -16.7921 83.6769 TC 80 964 4 200
1981291S05081 1982 94 SI MM ALEX 1981-10-25 18:00:00 TS -16.7944 83.6911 main 2372 2372 O_________P_O_ jtwc_sh SH021982 -16.7000 83.7000 70 1 -16.6833 83.7734 4 70 -17.0000 83.6000 TC 80 964 5 207
1981291S05081 1982 94 SI MM ALEX 1981-10-25 21:00:00 TS -17.0061 83.5656 main 2395 2395 P_________P_P_ SH021982 -16.8275 83.6075 70 1 -16.8334 83.6892 4 70 -17.3576 83.4001 TC 80 964 5 210
1981291S05081 1982 94 SI MM ALEX 1981-10-26 00:00:00 TS -17.2378 83.4238 main 2426 2426 O_________P_O_ jtwc_sh SH021982 -17.0000 83.5000 70 1 -17.0134 83.5714 4 70 -17.7000 83.2000 TC 80 964 5 207
1981291S05081 1982 94 SI MM ALEX 1981-10-26 03:00:00 TS -17.4744 83.3114 main 2457 2457 P_________P_P_ SH021982 -17.2350 83.4000 70 1 -17.2233 83.4420 4 70 -17.9649 83.0923 TC 75 968 5 204
1981291S05081 1982 94 SI MM ALEX 1981-10-26 04:00:00 TS -17.5555 83.2767 main 2465 2465 P_________O_P_ SH021982 -17.3225 83.3667 70 1 -17.3000 83.4000 4 70 -18.0442 83.0636 TC 73 969 5 197
1981291S05081 1982 94 SI MM ALEX 1981-10-26 06:00:00 TS -17.7227 83.2267 main 2480 2480 O_________P_O_ jtwc_sh SH021982 -17.5000 83.3000 70 1 -17.4680 83.3801 4 67 -18.2000 83.0000 TC 70 973 5 196
1981291S05081 1982 94 SI MM ALEX 1981-10-26 09:00:00 TS -17.9843 83.1463 main 2512 2512 P_________P_P_ SH021982 -17.7500 83.2074 65 1 -17.7453 83.3514 4 63 -18.4574 82.8799 TC 67 975 6 200
1981291S05081 1982 94 SI MM ALEX 1981-10-26 12:00:00 TS -18.2447 83.0249 main 2535 2535 O_________P_O_ jtwc_sh SH021982 -18.0000 83.1000 60 0 -18.0342 83.2746 4 59 -18.7000 82.7000 TC 65 977 6 209
1981291S05081 1982 94 SI MM ALEX 1981-10-26 15:00:00 TS -18.4976 82.8494 main 2574 2574 P_________P_P_ SH021982 -18.2571 83.0322 57 0 -18.3130 83.0934 4 56 -18.9225 82.4226 TC 62 979 6 216
1981291S05081 1982 94 SI MM ALEX 1981-10-26 16:00:00 TS -18.5763 82.7668 main 2581 2581 P_________O_P_ SH021982 -18.3408 82.9842 56 0 -18.4000 83.0000 2 55 -18.9879 82.3164 TC 61 979 8 235
1981291S05081 1982 94 SI MM ALEX 1981-10-26 18:00:00 TS -18.7123 82.5226 main 2592 2537 O_________P_O_ jtwc_sh SH021982 -18.5000 82.8000 55 0 -18.5368 82.6679 2 54 -19.1000 82.1000 TC 60 981 9 247
1981291S05081 1982 94 SI MM ALEX 1981-10-26 21:00:00 TS -18.8817 82.0140 main 2537 2483 P_________P_P_ SH021982 -18.7006 82.1951 52 0 -18.7220 82.0543 2 52 -19.2225 81.7924 TC 55 984 10 252
1981291S05081 1982 94 SI MM ALEX 1981-10-27 00:00:00 TS -19.0355 81.4750 main 2483 2439 O_________P_O_ jtwc_sh SH021982 -18.9000 81.5000 50 0 -18.9066 81.4249 2 51 -19.3000 81.5000 TC 50 988 10 250
1981291S05081 1982 94 SI MM ALEX 1981-10-27 03:00:00 TS -19.2104 81.0570 main 2439 2427 P_________P_P_ SH021982 -19.1371 80.9851 50 0 -19.1183 80.9179 2 50 -19.3574 81.2499 TC 45 991 8 244
1981291S05081 1982 94 SI MM ALEX 1981-10-27 04:00:00 TS -19.2734 80.9574 main 2427 2405 P_________O_P_ SH021982 -19.2232 80.8488 50 0 -19.2000 80.8000 2 50 -19.3720 81.1691 TC 43 991 6 230
1981291S05081 1982 94 SI MM ALEX 1981-10-27 06:00:00 TS -19.3938 80.8215 main 2405 2393 O_________P_O_ jtwc_sh SH021982 -19.4000 80.6000 50 0 -19.3835 80.6573 2 -19.4000 81.0000 TC 40 994 5 225
1981291S05081 1982 94 SI MM ALEX 1981-10-27 09:00:00 TS -19.5457 80.6676 main 2393 2382 __________P_P_ SH021982 -1 -19.6928 80.6001 2 -19.4476 80.7126 TC 35 997 4 228
1981291S05081 1982 94 SI MM ALEX 1981-10-27 10:00:00 TS -19.5766 80.6066 main 2382 2362 __________O_P_ SH021982 -1 -19.8000 80.6000 0 -19.4648 80.6099 TC 33 997 5 280
1981291S05081 1982 94 SI MM ALEX 1981-10-27 12:00:00 TS -19.5000 80.4000 main 2362 ____________O_ -1 0 -19.5000 80.4000 TC 30 1000 6 291

IBTrACS Databaseについて

本データベースは、米国NOAAが公開する1842年以降の世界の熱帯低気圧のベストトラックデータアーカイブInternational Best Track Archive for Climate Stewardship (IBTrACS)を、ウェブで閲覧しやすい形式に変換したものです。

最終更新日:2021-10-21